Time;durP1;ratioP1;P1;durP2;ratioP2;P2;SDS_P1;SDS_P2;PMS_P1;PMS_P2;Temp;Humidity;BMP_temperature;BMP_pressure;BME280_temperature;BME280_humidity;BME280_pressure;Samples;Min_cycle;Max_cycle;Signal;HPM_P1;HPM_P2
2021/09/08 00:00:12;;;;;;;13.57;9.95;;;13.30;99.90;;;14.89;100.00;100960.88;6131457;23;20002;-87
2021/09/08 00:02:39;;;;;;;15.60;9.80;;;13.30;99.90;;;14.89;100.00;100960.06;6133132;23;20073;-86
2021/09/08 00:05:10;;;;;;;15.63;10.13;;;13.30;99.90;;;14.87;100.00;100963.25;6131831;23;20257;-85
2021/09/08 00:07:37;;;;;;;14.35;9.38;;;13.30;99.90;;;14.86;100.00;100950.38;6132372;23;20013;-85
2021/09/08 00:10:07;;;;;;;17.38;10.63;;;13.30;99.90;;;14.86;100.00;100952.38;6155440;23;20440;-86
2021/09/08 00:12:35;;;;;;;14.88;10.25;;;13.30;99.90;;;14.84;100.00;100949.94;6132448;23;20014;-88
2021/09/08 00:15:04;;;;;;;16.33;10.77;;;13.30;99.90;;;14.83;100.00;100947.53;6155882;23;20009;-88
2021/09/08 00:17:30;;;;;;;14.02;10.25;;;13.20;99.90;;;14.78;100.00;100943.84;6157070;23;20044;-87
2021/09/08 00:19:56;;;;;;;16.25;10.23;;;13.20;99.90;;;14.78;100.00;100941.03;6132511;23;20005;-86
2021/09/08 00:22:23;;;;;;;15.15;10.52;;;13.20;99.90;;;14.77;100.00;100949.84;6133514;23;20009;-87
2021/09/08 00:24:49;;;;;;;15.20;10.13;;;13.20;99.90;;;14.76;100.00;100948.22;6132149;23;20009;-87
2021/09/08 00:27:15;;;;;;;14.40;10.10;;;13.20;99.90;;;14.71;100.00;100946.53;6158207;23;20010;-87
2021/09/08 00:29:43;;;;;;;13.95;10.65;;;13.10;99.90;;;14.71;100.00;100954.16;6132886;23;20017;-85
2021/09/08 00:32:09;;;;;;;16.75;10.20;;;13.10;99.90;;;14.69;100.00;100956.56;6156101;23;20010;-85
2021/09/08 00:34:35;;;;;;;17.42;10.75;;;13.10;99.90;;;14.67;100.00;100953.31;6133352;23;20006;-86
2021/09/08 00:37:01;;;;;;;14.20;10.32;;;13.10;99.90;;;14.65;100.00;100950.06;6133721;23;20017;-87
2021/09/08 00:39:27;;;;;;;15.77;10.88;;;13.10;99.90;;;14.63;100.00;100947.63;6123707;23;20045;-87
2021/09/08 00:41:55;;;;;;;17.65;12.18;;;13.10;99.90;;;14.70;100.00;100942.09;6128874;23;20025;-86
2021/09/08 00:44:26;;;;;;;18.58;12.68;;;13.10;99.90;;;14.80;100.00;100940.66;6132601;23;20014;-84
2021/09/08 00:46:52;;;;;;;16.63;12.45;;;13.20;99.90;;;14.86;100.00;100932.69;6120864;23;20014;-85
2021/09/08 00:49:18;;;;;;;19.20;12.85;;;13.30;99.90;;;14.98;100.00;100935.28;6077269;23;20015;-87
2021/09/08 00:51:47;;;;;;;22.42;14.32;;;13.40;99.90;;;15.07;100.00;100941.41;6068159;23;20015;-86
2021/09/08 00:54:15;;;;;;;21.73;13.85;;;13.40;99.90;;;15.19;100.00;100939.16;6066735;23;20007;-87
2021/09/08 00:56:44;;;;;;;16.92;11.35;;;13.50;99.90;;;15.13;100.00;100945.53;6068226;23;20144;-88
2021/09/08 00:59:11;;;;;;;16.27;10.60;;;13.40;99.90;;;15.03;100.00;100946.19;6091185;23;20007;-86
2021/09/08 01:01:37;;;;;;;17.20;10.35;;;13.40;99.90;;;14.95;100.00;100933.22;6066848;23;20022;-86
2021/09/08 01:04:04;;;;;;;16.73;10.73;;;13.30;99.90;;;14.85;100.00;100945.94;6091045;23;20392;-87
2021/09/08 01:06:30;;;;;;;19.27;11.57;;;13.20;99.90;;;14.76;100.00;100940.63;6066753;23;20434;-87
2021/09/08 01:08:58;;;;;;;17.23;11.63;;;13.20;99.90;;;14.71;100.00;100938.09;6069120;23;20011;-85
2021/09/08 01:11:24;;;;;;;17.85;11.38;;;13.10;99.90;;;14.63;100.00;100936.41;6091052;23;20042;-86
2021/09/08 01:13:50;;;;;;;24.20;12.93;;;13.10;99.90;;;14.62;100.00;100937.56;6068968;23;20454;-88
2021/09/08 01:16:15;;;;;;;16.77;12.13;;;13.10;99.90;;;14.74;100.00;100931.72;6067902;23;20063;-88
2021/09/08 01:18:46;;;;;;;18.13;11.98;;;13.10;99.90;;;14.81;100.00;100936.63;6069150;23;20022;-86
2021/09/08 01:21:12;;;;;;;15.30;9.82;;;13.10;99.90;;;14.77;100.00;100936.59;6091640;23;20021;-87
2021/09/08 01:23:38;;;;;;;17.60;11.68;;;13.10;99.90;;;14.69;100.00;100939.69;6067163;23;20014;-88
2021/09/08 01:26:05;;;;;;;15.77;10.35;;;13.10;99.90;;;14.57;100.00;100937.91;6067997;23;20015;-88
2021/09/08 01:28:32;;;;;;;16.60;10.43;;;13.00;99.90;;;14.50;100.00;100922.94;6067174;23;20011;-86
2021/09/08 01:31:04;;;;;;;16.27;11.13;;;12.90;99.90;;;14.42;100.00;100924.81;6067516;23;20014;-87
2021/09/08 01:33:31;;;;;;;16.77;11.63;;;12.80;99.90;;;14.42;100.00;100922.00;6090849;23;20103;-87
2021/09/08 01:35:58;;;;;;;19.35;12.07;;;12.80;99.90;;;14.57;100.00;100923.84;6067159;23;20433;-86
2021/09/08 01:38:24;;;;;;;16.40;12.23;;;12.90;99.90;;;14.59;100.00;100931.91;6066684;23;20061;-86
2021/09/08 01:40:50;;;;;;;15.07;10.10;;;13.00;99.90;;;14.48;100.00;100928.91;6069406;23;20014;-88
2021/09/08 01:43:25;;;;;;;19.17;11.05;;;12.80;99.90;;;14.40;100.00;100927.19;6084846;23;20022;-82
2021/09/08 01:45:52;;;;;;;17.17;11.82;;;12.80;99.90;;;14.32;100.00;100924.63;6092375;23;20017;-82
2021/09/08 01:48:18;;;;;;;22.30;12.77;;;12.80;99.90;;;14.37;100.00;100916.72;6092578;23;20015;-82
2021/09/08 01:50:46;;;;;;;19.65;13.38;;;12.70;99.90;;;14.46;100.00;100913.63;6093747;23;19999;-81
2021/09/08 01:53:12;;;;;;;19.55;12.68;;;12.80;99.90;;;14.51;100.00;100918.94;6091762;23;20039;-83
2021/09/08 01:55:38;;;;;;;20.25;13.38;;;12.90;99.90;;;14.53;100.00;100908.94;6093167;23;20009;-80
2021/09/08 01:58:04;;;;;;;20.15;13.68;;;12.90;99.90;;;14.58;100.00;100917.03;6108020;23;20026;-90
2021/09/08 02:00:30;;;;;;;20.05;13.38;;;12.90;99.90;;;14.60;100.00;100911.03;6077200;23;20003;-88
2021/09/08 02:02:56;;;;;;;16.85;12.15;;;12.90;99.90;;;14.63;100.00;100913.09;6077016;23;20445;-89
2021/09/08 02:05:22;;;;;;;19.15;12.38;;;13.00;99.90;;;14.61;100.00;100913.47;6077120;23;20006;-89
2021/09/08 02:07:48;;;;;;;25.90;14.43;;;13.00;99.90;;;14.65;100.00;100914.31;6088773;23;20035;-83
2021/09/08 02:10:14;;;;;;;24.48;15.23;;;13.10;99.90;;;14.69;100.00;100917.19;6114911;23;20018;-88
2021/09/08 02:12:42;;;;;;;24.70;14.95;;;13.10;99.90;;;14.78;100.00;100912.09;6076340;23;20433;-84
2021/09/08 02:15:09;;;;;;;23.13;14.50;;;13.10;99.90;;;14.81;100.00;100899.28;6072650;23;20022;-87
2021/09/08 02:17:35;;;;;;;26.52;15.57;;;13.20;99.90;;;14.94;100.00;100914.72;6071065;23;20062;-84
2021/09/08 02:20:01;;;;;;;22.38;14.75;;;13.30;99.90;;;15.01;100.00;100912.81;6070652;23;20031;-88
2021/09/08 02:22:27;;;;;;;24.17;15.80;;;13.30;99.90;;;15.03;100.00;100904.81;6094747;23;20386;-88
2021/09/08 02:24:53;;;;;;;23.80;15.43;;;13.40;99.90;;;15.15;100.00;100903.75;6070915;23;20090;-86
2021/09/08 02:27:19;;;;;;;24.63;14.90;;;13.50;99.90;;;15.16;100.00;100894.94;6069865;23;20011;-85
2021/09/08 02:29:44;;;;;;;19.45;12.77;;;13.50;99.90;;;15.10;100.00;100895.66;6069827;23;20503;-84
2021/09/08 02:32:10;;;;;;;23.00;15.38;;;13.40;99.90;;;15.07;100.00;100893.59;6071518;23;20022;-87
2021/09/08 02:34:36;;;;;;;24.65;15.60;;;13.40;99.90;;;15.10;100.00;100895.66;6071273;23;20315;-86
2021/09/08 02:37:03;;;;;;;21.23;13.60;;;13.50;99.90;;;15.17;100.00;100892.94;6069712;23;20007;-84
2021/09/08 02:39:30;;;;;;;20.65;14.40;;;13.50;99.90;;;15.21;100.00;100894.59;6093406;23;20394;-87
2021/09/08 02:41:56;;;;;;;23.27;15.20;;;13.60;99.90;;;15.23;100.00;100888.56;6069589;23;20093;-88
2021/09/08 02:44:22;;;;;;;22.92;14.57;;;13.60;99.90;;;15.24;100.00;100891.00;6069069;23;20007;-88
2021/09/08 02:46:48;;;;;;;23.95;15.57;;;13.60;99.90;;;15.27;100.00;100887.44;6068538;23;20039;-88
2021/09/08 02:49:15;;;;;;;21.10;13.95;;;13.60;99.90;;;15.37;100.00;100894.38;6069104;23;20050;-88
2021/09/08 02:51:40;;;;;;;24.15;15.07;;;13.70;99.90;;;15.43;100.00;100887.22;6092801;23;20137;-86
2021/09/08 02:54:07;;;;;;;23.02;14.65;;;13.80;99.90;;;15.48;100.00;100891.69;6069365;23;20039;-88
2021/09/08 02:56:33;;;;;;;18.65;12.80;;;13.80;99.90;;;15.49;100.00;100888.50;6071169;23;20010;-86
2021/09/08 02:58:58;;;;;;;20.00;13.60;;;13.80;99.90;;;15.45;100.00;100884.81;6095099;23;20006;-88
2021/09/08 03:01:24;;;;;;;18.75;11.80;;;13.80;99.90;;;15.30;99.95;100883.03;6078931;23;20278;-85
2021/09/08 03:03:50;;;;;;;19.42;12.48;;;13.70;99.90;;;15.18;100.00;100883.31;6088768;23;20018;-86
2021/09/08 03:06:16;;;;;;;20.63;12.10;;;13.60;99.90;;;15.09;99.90;100888.41;6072832;23;20337;-88
2021/09/08 03:08:45;;;;;;;19.02;11.50;;;13.50;99.90;;;14.91;100.00;100885.38;6092867;23;20011;-88
2021/09/08 03:11:11;;;;;;;13.73;9.88;;;13.40;99.90;;;14.76;100.00;100883.56;6068068;23;20441;-87
2021/09/08 03:13:36;;;;;;;17.52;11.60;;;13.20;99.90;;;14.53;99.95;100868.78;6068271;23;20043;-87
2021/09/08 03:16:03;;;;;;;15.15;10.75;;;12.90;99.90;;;14.43;100.00;100880.66;6068567;23;20007;-88
2021/09/08 03:18:29;;;;;;;17.08;11.65;;;12.80;99.90;;;14.39;100.00;100879.78;6068983;23;20177;-88
2021/09/08 03:20:54;;;;;;;16.10;10.45;;;12.80;99.90;;;14.23;100.00;100875.09;6070670;23;20434;-89
2021/09/08 03:23:20;;;;;;;14.57;9.75;;;12.60;99.90;;;14.14;100.00;100877.38;6070338;23;20022;-86
2021/09/08 03:25:46;;;;;;;18.73;10.38;;;12.50;99.90;;;14.08;100.00;100870.47;6092865;23;20014;-85
2021/09/08 03:28:12;;;;;;;16.05;11.38;;;12.50;99.90;;;14.01;100.00;100867.53;6068057;23;20036;-87
2021/09/08 03:30:38;;;;;;;17.83;10.85;;;12.40;99.90;;;14.01;100.00;100869.53;6068663;23;20434;-88
2021/09/08 03:33:04;;;;;;;18.25;11.27;;;12.40;99.90;;;13.96;100.00;100865.06;6068080;23;20015;-86
2021/09/08 03:35:30;;;;;;;17.50;11.50;;;12.40;99.90;;;13.97;100.00;100868.66;6069294;23;20002;-84
2021/09/08 03:37:56;;;;;;;19.27;12.93;;;12.40;99.90;;;13.94;100.00;100858.97;6071140;23;20013;-86
2021/09/08 03:40:23;;;;;;;19.95;12.32;;;12.40;99.90;;;13.93;100.00;100850.94;6096865;23;20089;-87
2021/09/08 03:42:49;;;;;;;17.15;11.77;;;12.30;99.90;;;13.89;100.00;100859.31;6096030;23;20010;-86
2021/09/08 03:45:15;;;;;;;15.80;11.05;;;12.30;99.90;;;13.83;100.00;100857.19;6072959;23;20015;-85
2021/09/08 03:47:42;;;;;;;18.23;12.00;;;12.30;99.90;;;13.83;100.00;100868.41;6098454;23;20010;-88
2021/09/08 03:50:10;;;;;;;16.55;12.07;;;12.30;99.90;;;13.81;100.00;100862.34;6072936;23;20033;-88
2021/09/08 03:52:37;;;;;;;16.48;11.85;;;12.20;99.90;;;13.77;100.00;100858.69;6072991;23;20018;-89
2021/09/08 03:55:05;;;;;;;20.70;12.02;;;12.20;99.90;;;13.73;100.00;100856.63;6097436;23;20317;-84
2021/09/08 03:57:31;;;;;;;20.15;12.70;;;12.20;99.90;;;13.74;100.00;100858.25;6098553;23;20010;-86
2021/09/08 03:59:57;;;;;;;19.38;12.18;;;12.20;99.90;;;13.75;100.00;100861.88;6072940;23;20070;-85
2021/09/08 04:02:23;;;;;;;18.80;11.70;;;12.20;99.90;;;13.69;100.00;100858.56;6072558;23;20074;-85
2021/09/08 04:04:49;;;;;;;17.58;10.77;;;12.10;99.90;;;13.61;100.00;100853.22;6072517;23;20038;-84
2021/09/08 04:07:15;;;;;;;17.13;11.68;;;12.00;99.90;;;13.57;100.00;100849.53;6072529;23;20018;-87
2021/09/08 04:09:41;;;;;;;17.52;12.20;;;12.00;99.90;;;13.53;100.00;100849.44;6072622;23;20345;-87
2021/09/08 04:12:07;;;;;;;17.83;12.13;;;11.90;99.90;;;13.54;100.00;100848.28;6072308;23;20135;-85
2021/09/08 04:14:33;;;;;;;16.80;10.80;;;11.90;99.90;;;13.52;100.00;100845.00;6072180;23;20028;-86
2021/09/08 04:16:59;;;;;;;15.60;10.48;;;11.90;99.90;;;13.46;100.00;100842.88;6072474;23;20429;-86
2021/09/08 04:19:25;;;;;;;18.48;11.60;;;11.90;99.90;;;13.42;100.00;100844.84;6071713;23;20010;-84
2021/09/08 04:21:51;;;;;;;16.95;11.48;;;11.90;99.90;;;13.37;100.00;100845.94;6095291;23;20010;-90
2021/09/08 04:24:17;;;;;;;18.83;11.82;;;11.80;99.90;;;13.35;100.00;100844.69;6071713;23;20069;-88
2021/09/08 04:26:43;;;;;;;20.75;12.85;;;11.80;99.90;;;13.36;100.00;100838.69;6072069;23;20440;-89
2021/09/08 04:29:08;;;;;;;21.65;13.38;;;11.80;99.90;;;13.40;100.00;100844.38;6072289;23;20316;-91
2021/09/08 04:31:34;;;;;;;22.52;13.73;;;11.80;99.90;;;13.42;100.00;100844.84;6071831;23;20021;-89
2021/09/08 04:34:00;;;;;;;18.95;11.73;;;11.80;99.90;;;13.40;100.00;100852.81;6071427;23;20011;-88
2021/09/08 04:36:26;;;;;;;18.58;11.90;;;11.80;99.90;;;13.31;100.00;100846.63;6098480;23;20439;-89
2021/09/08 04:38:53;;;;;;;19.13;12.88;;;11.80;99.90;;;13.25;100.00;100846.13;6092197;23;20010;-88
2021/09/08 04:41:19;;;;;;;16.50;11.23;;;11.80;99.90;;;13.27;100.00;100848.53;6068599;23;20086;-89
2021/09/08 04:43:45;;;;;;;20.88;13.07;;;11.80;99.90;;;13.28;100.00;100844.56;6067707;23;20010;-88
2021/09/08 04:46:11;;;;;;;16.60;10.93;;;11.70;99.90;;;13.25;100.00;100843.31;6068032;23;20004;-90
2021/09/08 04:48:37;;;;;;;20.15;12.45;;;11.70;99.90;;;13.21;100.00;100839.63;6068911;23;20003;-90
2021/09/08 04:51:03;;;;;;;20.52;13.07;;;11.70;99.90;;;13.24;100.00;100843.66;6066857;23;20011;-89
2021/09/08 04:53:29;;;;;;;19.15;12.43;;;11.70;99.90;;;13.22;100.00;100832.84;6066934;23;20083;-89
2021/09/08 04:55:57;;;;;;;20.65;13.52;;;11.70;99.90;;;13.23;100.00;100828.06;6069432;23;20007;-90
2021/09/08 04:58:24;;;;;;;20.20;14.02;;;11.60;99.90;;;13.22;100.00;100841.25;6067845;23;20007;-89
2021/09/08 05:00:51;;;;;;;22.27;13.65;;;11.60;99.90;;;13.20;100.00;100841.63;6067515;23;20341;-86
2021/09/08 05:03:17;;;;;;;21.73;14.00;;;11.60;99.90;;;13.20;100.00;100838.00;6067586;23;20014;-90
2021/09/08 05:05:43;;;;;;;19.63;13.18;;;11.70;99.90;;;13.21;100.00;100839.63;6068580;23;20018;-91
2021/09/08 05:08:09;;;;;;;22.05;14.05;;;11.60;99.90;;;13.21;100.00;100839.63;6092716;23;20011;-90
2021/09/08 05:10:35;;;;;;;26.80;14.43;;;11.70;99.90;;;13.25;100.00;100843.31;6070292;23;20013;-89
2021/09/08 05:13:00;;;;;;;26.73;16.13;;;11.60;99.90;;;13.27;100.00;100843.75;6068817;23;20014;-87
2021/09/08 05:15:26;;;;;;;25.10;14.48;;;11.70;99.90;;;13.27;100.00;100845.72;6068445;23;20349;-87
2021/09/08 05:17:52;;;;;;;21.83;13.73;;;11.70;99.90;;;13.24;100.00;100843.66;6093543;23;20014;-88
2021/09/08 05:20:19;;;;;;;29.25;15.75;;;11.60;99.90;;;13.24;100.00;100838.88;6071462;23;20007;-87
2021/09/08 05:22:45;;;;;;;25.88;15.23;;;11.70;99.90;;;13.30;100.00;100839.38;6074364;23;20011;-86
2021/09/08 05:25:11;;;;;;;25.33;14.82;;;11.70;99.90;;;13.39;100.00;100845.59;6073148;23;20014;-88
2021/09/08 05:27:37;;;;;;;24.77;14.27;;;11.80;99.90;;;13.43;100.00;100833.22;6066157;23;20010;-88
2021/09/08 05:30:05;;;;;;;25.83;15.90;;;11.80;99.90;;;13.47;100.00;100833.28;6066466;23;20590;-88
2021/09/08 05:32:31;;;;;;;29.65;16.90;;;11.90;99.90;;;13.54;100.00;100837.06;6066308;23;20015;-87
2021/09/08 05:34:57;;;;;;;27.08;17.73;;;11.90;99.90;;;13.61;100.00;100834.34;6066664;23;20033;-85
2021/09/08 05:37:24;;;;;;;32.03;17.30;;;12.00;99.90;;;13.65;100.00;100832.41;6068066;23;20014;-87
2021/09/08 05:39:50;;;;;;;24.38;15.93;;;12.00;99.90;;;13.65;100.00;100838.03;6067813;23;20017;-89
2021/09/08 05:42:17;;;;;;;24.35;14.73;;;12.10;99.90;;;13.71;100.00;100838.53;6067818;23;20018;-88
2021/09/08 05:44:43;;;;;;;20.23;13.05;;;12.00;99.90;;;13.80;100.00;100841.91;6092234;23;20006;-88
2021/09/08 05:47:09;;;;;;;20.38;13.40;;;12.20;99.90;;;13.90;100.00;100835.63;6070259;23;20057;-92
2021/09/08 05:49:35;;;;;;;21.13;13.82;;;12.20;99.90;;;14.02;100.00;100834.66;6068704;23;20011;-88
2021/09/08 05:52:02;;;;;;;21.75;14.32;;;12.30;99.90;;;14.20;100.00;100846.97;6071439;23;20010;-88
2021/09/08 05:54:28;;;;;;;21.85;14.77;;;12.50;99.90;;;14.41;100.00;100841.72;6068056;23;20086;-88
2021/09/08 05:56:54;;;;;;;22.40;13.77;;;12.70;99.90;;;14.55;100.00;100833.47;6068426;23;20464;-87
2021/09/08 05:59:20;;;;;;;25.25;15.43;;;12.80;99.90;;;14.80;100.00;100842.25;6068520;23;20013;-87
2021/09/08 06:01:48;;;;;;;24.58;14.05;;;13.00;99.90;;;15.01;100.00;100836.88;6069011;23;20472;-87
2021/09/08 06:04:14;;;;;;;23.98;13.90;;;13.20;99.90;;;15.39;100.00;100848.94;6092630;23;20465;-87
2021/09/08 06:06:40;;;;;;;22.40;13.63;;;13.40;99.90;;;15.67;100.00;100832.38;6092493;23;20007;-89
2021/09/08 06:09:09;;;;;;;19.27;12.23;;;13.60;99.90;;;16.06;100.00;100841.97;6093027;23;20015;-90
2021/09/08 06:11:35;;;;;;;20.48;12.05;;;13.80;99.90;;;16.46;100.00;100840.22;6093006;23;20053;-91
2021/09/08 06:14:01;;;;;;;19.00;11.57;;;14.10;99.90;;;16.91;100.00;100844.53;6069952;23;20007;-90
2021/09/08 06:16:28;;;;;;;18.77;12.15;;;14.30;99.90;;;17.27;100.00;100838.59;6069715;23;20013;-91
2021/09/08 06:18:54;;;;;;;21.55;11.50;;;14.50;99.90;;;17.64;96.96;100843.16;6094140;23;20066;-88
2021/09/08 06:21:21;;;;;;;17.60;11.65;;;14.80;99.90;;;18.03;95.20;100831.88;6070269;23;20098;-88
2021/09/08 06:23:50;;;;;;;20.13;11.05;;;15.10;99.90;;;18.36;92.51;100831.44;6069808;23;20022;-88
2021/09/08 06:26:16;;;;;;;18.50;9.82;;;15.40;99.90;;;18.77;90.53;100838.25;6094736;23;20429;-89
2021/09/08 06:28:42;;;;;;;19.17;10.32;;;15.80;99.90;;;19.11;88.23;100829.19;6094793;23;20015;-86
2021/09/08 06:31:10;;;;;;;13.68;9.57;;;16.20;99.90;;;19.38;86.86;100835.94;6071367;23;20015;-89
2021/09/08 06:33:39;;;;;;;18.73;9.90;;;16.60;99.90;;;19.58;84.38;100830.59;6069585;23;20014;-88
2021/09/08 06:36:04;;;;;;;20.77;10.13;;;16.90;99.90;;;19.81;83.98;100828.78;6070588;23;20007;-88
2021/09/08 10:26:17;;;;;;;7.88;6.20;;;29.00;71.30;;;30.78;37.86;100675.84;6171033;23;20026;-88
2021/09/08 10:28:46;;;;;;;7.55;6.57;;;29.00;70.90;;;30.69;36.65;100678.84;6120066;23;20013;-87
2021/09/08 10:31:15;;;;;;;8.20;5.63;;;28.90;69.10;;;30.51;37.06;100667.47;6172183;23;20001;-88
2021/09/08 10:33:49;;;;;;;7.45;6.53;;;28.70;68.60;;;30.80;36.40;100681.91;6171374;23;20021;-89
2021/09/08 10:36:15;;;;;;;7.88;6.32;;;28.80;68.20;;;30.59;36.94;100674.47;6168817;23;20168;-88
2021/09/08 10:38:41;;;;;;;8.77;6.22;;;28.80;68.40;;;30.72;36.80;100654.78;6141734;23;20012;-88
2021/09/08 10:41:10;;;;;;;7.68;6.28;;;28.90;68.50;;;30.69;37.78;100653.69;6138338;23;20009;-89
2021/09/08 10:43:38;;;;;;;8.15;6.70;;;28.90;69.80;;;30.80;37.36;100651.00;6110487;23;20085;-88
2021/09/08 10:46:08;;;;;;;8.50;5.95;;;28.90;68.60;;;30.97;37.47;100651.31;6164923;23;20049;-89
2021/09/08 10:48:45;;;;;;;8.93;7.13;;;28.90;69.40;;;31.45;37.38;100654.69;6138219;23;20014;-89
2021/09/08 10:51:39;;;;;;;9.48;6.82;;;29.20;70.30;;;31.31;35.82;100647.66;6134429;23;20013;-88
2021/09/08 10:54:07;;;;;;;12.18;6.28;;;29.30;68.40;;;31.41;35.49;100645.44;6134649;23;20013;-88
2021/09/08 10:57:04;;;;;;;8.00;6.25;;;29.30;66.10;;;31.45;36.22;100640.25;6135256;23;20013;-89
2021/09/08 11:00:06;;;;;;;9.25;6.18;;;29.30;66.00;;;31.75;35.12;100632.28;6110082;23;20020;-90
2021/09/08 11:02:44;;;;;;;10.35;6.97;;;29.40;66.10;;;31.68;35.66;100630.63;6134258;23;20005;-88
2021/09/08 11:05:12;;;;;;;8.10;6.00;;;29.50;66.10;;;32.17;34.69;100631.78;6134516;23;20097;-90
2021/09/08 11:07:51;;;;;;;8.68;6.13;;;29.80;64.90;;;32.26;34.68;100640.28;6134166;23;20005;-88
2021/09/08 11:10:35;;;;;;;6.25;5.55;;;29.90;64.70;;;31.78;34.14;100629.19;6133006;23;20005;-87
2021/09/08 11:13:05;;;;;;;8.02;6.10;;;29.90;62.40;;;31.45;35.19;100619.25;6134359;23;20044;-89
2021/09/08 11:15:36;;;;;;;7.15;6.20;;;29.60;63.80;;;30.96;36.60;100614.28;6133061;23;20005;-89
2021/09/08 11:18:11;;;;;;;8.40;5.97;;;29.30;65.00;;;31.15;35.42;100616.44;6133667;23;20012;-89
2021/09/08 11:20:44;;;;;;;7.60;5.23;;;29.30;64.20;;;31.77;35.01;100606.59;6134622;23;20005;-89
2021/09/08 11:23:24;;;;;;;8.55;6.43;;;29.50;64.90;;;32.04;34.56;100608.25;6136192;23;20510;-90
2021/09/08 11:26:04;;;;;;;6.65;5.95;;;29.70;64.10;;;32.49;35.00;100592.97;6134982;23;20081;-90
2021/09/08 11:28:32;;;;;;;6.35;5.75;;;29.90;65.50;;;32.40;34.38;100603.91;6143768;23;20023;-89
2021/09/08 11:31:23;;;;;;;8.63;6.30;;;30.10;63.20;;;32.68;34.56;100597.13;6152290;23;20030;-88
2021/09/08 11:33:52;;;;;;;8.43;6.30;;;30.30;63.80;;;32.59;34.33;100602.28;6135672;23;20040;-89
2021/09/08 11:36:20;;;;;;;7.57;5.40;;;30.20;63.70;;;32.49;34.04;100592.97;6135355;23;20035;-89
2021/09/08 11:38:58;;;;;;;8.63;6.30;;;30.10;62.90;;;32.63;34.37;100594.16;6134958;23;20332;-89
2021/09/08 11:41:29;;;;;;;7.43;6.30;;;30.30;64.00;;;32.25;34.65;100601.13;6134043;23;20095;-90
2021/09/08 11:44:02;;;;;;;8.73;6.50;;;30.20;63.10;;;32.02;34.83;100605.03;6134403;23;20013;-88
2021/09/08 11:46:44;;;;;;;10.73;6.45;;;30.10;62.80;;;31.94;34.83;100590.25;6135132;23;20009;-89
2021/09/08 11:49:12;;;;;;;10.13;6.05;;;29.90;62.90;;;32.04;34.23;100594.59;6115586;23;20014;-89
2021/09/08 11:51:43;;;;;;;7.95;6.28;;;30.00;61.90;;;32.13;33.84;100596.53;6158976;23;20192;-88
2021/09/08 11:54:24;;;;;;;8.32;6.28;;;29.90;61.40;;;32.14;34.36;100587.34;6158697;23;20060;-89
2021/09/08 11:56:59;;;;;;;8.85;6.05;;;29.90;62.20;;;32.01;35.50;100589.81;6134861;23;20017;-89
2021/09/08 11:59:33;;;;;;;9.30;6.70;;;29.90;63.70;;;32.04;34.89;100580.16;6132760;23;20048;-89
2021/09/08 12:02:13;;;;;;;7.10;6.40;;;30.00;62.50;;;32.30;33.29;100580.19;6135682;23;20006;-89
2021/09/08 12:04:44;;;;;;;7.85;5.85;;;29.90;61.00;;;32.53;33.69;100572.47;6136109;23;20079;-89
2021/09/08 12:07:19;;;;;;;7.70;6.05;;;29.90;61.30;;;32.48;34.09;100576.91;6134774;23;20013;-89
2021/09/08 12:09:52;;;;;;;8.18;6.07;;;29.90;62.70;;;32.70;32.83;100579.22;6134905;23;20044;-89
2021/09/08 12:12:20;;;;;;;9.30;6.63;;;30.20;60.50;;;32.66;33.47;100575.78;6134432;23;20037;-88
2021/09/08 12:14:49;;;;;;;8.98;6.18;;;30.50;60.50;;;32.49;34.03;100575.63;6134185;23;20010;-87
2021/09/08 12:17:27;;;;;;;8.48;6.53;;;30.30;60.70;;;32.27;33.61;100573.28;6134469;23;20420;-89
2021/09/08 12:20:11;;;;;;;9.32;6.13;;;30.30;60.70;;;32.74;33.49;100554.56;6134706;23;20005;-88
2021/09/08 12:22:47;;;;;;;7.32;5.43;;;30.30;60.50;;;32.75;33.13;100559.03;6136021;23;20071;-87
2021/09/08 12:25:22;;;;;;;;;;;30.30;59.70;;;32.40;34.47;100555.53;6135894;23;20013;-88
2021/09/08 12:28:03;;;;;;;9.75;6.57;;;30.30;61.10;;;32.10;33.78;100554.22;6144054;23;19905;-89
2021/09/08 12:30:32;;;;;;;9.00;5.47;;;30.20;59.50;;;31.77;34.24;100555.41;6139167;23;20081;-89
2021/09/08 12:33:07;;;;;;;9.30;5.63;;;30.00;59.50;;;31.72;34.69;100546.69;6158197;23;20009;-88
2021/09/08 12:35:41;;;;;;;;;;;29.80;60.40;;;32.10;33.59;100546.34;6163394;23;20005;-90
2021/09/08 12:38:43;;;;;;;7.10;5.85;;;29.90;60.20;;;32.21;33.62;100545.66;6163707;23;20081;-89
2021/09/08 12:41:21;;;;;;;9.27;5.95;;;30.00;59.70;;;32.48;34.16;100544.31;6129454;23;20021;-84
2021/09/08 12:43:55;;;;;;;9.40;6.35;;;30.10;61.50;;;32.27;34.22;100544.41;6133649;23;20005;-85
2021/09/08 12:46:49;;;;;;;11.00;6.95;;;30.20;60.30;;;32.43;34.77;100534.28;6160284;23;20002;-85
2021/09/08 12:49:29;;;;;;;7.38;5.88;;;30.10;62.10;;;32.52;33.09;100524.66;6133553;23;20013;-87
2021/09/08 12:51:56;;;;;;;7.85;5.72;;;30.10;59.40;;;32.67;33.80;100529.00;6104138;23;20006;-87
2021/09/08 12:54:23;;;;;;;8.23;5.80;;;30.20;60.80;;;32.13;32.74;100516.44;6104980;23;20041;-91
2021/09/08 12:56:52;;;;;;;9.57;5.57;;;30.10;58.20;;;31.65;32.89;100519.03;6132187;23;20037;-88
2021/09/08 12:59:19;;;;;;;5.82;5.22;;;30.00;57.40;;;31.90;33.77;100519.56;6104899;23;20033;-89
2021/09/08 13:01:55;;;;;;;8.93;6.07;;;29.90;59.20;;;31.94;32.95;100514.38;6104779;23;20041;-88
2021/09/08 13:04:21;;;;;;;7.25;5.65;;;29.90;58.20;;;32.23;33.74;100514.16;6133831;23;20025;-86
2021/09/08 13:06:49;;;;;;;7.60;5.70;;;29.90;60.00;;;32.44;32.64;100509.88;6123354;23;20018;-88
2021/09/08 13:09:16;;;;;;;7.18;4.93;;;30.10;58.30;;;32.40;30.88;100506.41;6110604;23;20025;-87
2021/09/08 13:11:42;;;;;;;6.63;4.93;;;30.10;55.70;;;32.07;31.24;100500.34;6134302;23;20447;-90
2021/09/08 13:14:08;;;;;;;5.57;4.32;;;30.00;56.00;;;32.26;31.98;100505.25;6134803;23;20006;-88
2021/09/08 13:16:36;;;;;;;7.00;4.85;;;30.00;56.90;;;32.43;32.22;100499.59;6109044;23;20038;-89
2021/09/08 13:19:06;;;;;;;6.78;5.40;;;30.10;58.40;;;32.28;32.38;100498.94;6139727;23;20397;-87
2021/09/08 13:21:33;;;;;;;10.52;5.63;;;30.00;57.80;;;32.21;33.28;100497.31;6104277;23;20424;-88
2021/09/08 13:24:01;;;;;;;5.07;4.57;;;29.90;58.60;;;32.14;33.01;100485.44;6104263;23;20010;-87
2021/09/08 13:26:28;;;;;;;7.70;5.70;;;29.80;58.90;;;32.32;33.31;100493.75;6130321;23;20013;-87
2021/09/08 13:28:59;;;;;;;7.85;5.70;;;29.90;59.60;;;32.18;33.09;100492.56;6105691;23;20098;-90
2021/09/08 13:31:28;;;;;;;6.85;5.38;;;29.90;58.60;;;32.27;32.77;100480.81;6110216;23;20089;-89
2021/09/08 13:33:54;;;;;;;10.45;6.55;;;29.90;58.50;;;31.81;33.76;100477.22;6117033;23;20034;-89
2021/09/08 13:36:20;;;;;;;7.05;5.43;;;29.90;58.80;;;32.13;33.41;100478.88;6108962;23;20009;-88
2021/09/08 13:38:47;;;;;;;5.85;5.25;;;29.90;58.80;;;32.33;32.42;100466.44;6131391;23;20006;-89
2021/09/08 13:41:13;;;;;;;6.50;5.70;;;29.90;57.70;;;32.38;33.27;100471.44;6105489;23;20006;-90
2021/09/08 13:43:43;;;;;;;7.30;6.05;;;29.90;58.90;;;32.34;32.63;100462.22;6112569;23;20507;-88
2021/09/08 13:46:17;;;;;;;7.07;5.68;;;29.90;58.10;;;32.67;33.11;100461.69;6115882;23;20017;-88
2021/09/08 13:48:46;;;;;;;9.05;5.43;;;30.00;58.80;;;32.36;33.66;100468.28;6126207;23;20018;-87
2021/09/08 13:51:13;;;;;;;6.38;5.25;;;30.10;58.90;;;32.23;33.66;100453.47;6139321;23;20017;-89
2021/09/08 13:53:39;;;;;;;6.95;5.63;;;30.10;58.70;;;31.94;33.82;100457.38;6135765;23;20017;-88